createdAt,value
2023-05-12T00:00:39.460Z,101274.59
2023-05-12T00:03:05.849Z,101261.78
2023-05-12T00:05:32.252Z,101264.75
2023-05-12T00:07:58.581Z,101261.78
2023-05-12T00:10:26.254Z,101262.53
2023-05-12T00:12:52.579Z,101261.78
2023-05-12T00:15:19.995Z,101257.41
2023-05-12T00:17:46.347Z,101253.03
2023-05-12T00:20:12.777Z,101258.81
2023-05-12T00:22:41.778Z,101253.78
2023-05-12T00:25:08.269Z,101250.16
2023-05-12T00:27:34.620Z,101251.53
2023-05-12T00:30:00.968Z,101259.44
2023-05-12T00:32:27.421Z,101251.53
2023-05-12T00:34:54.510Z,101247.91
2023-05-12T00:37:21.138Z,101255.09
2023-05-12T00:39:47.478Z,101260.09
2023-05-12T00:42:13.966Z,101263.75
2023-05-12T00:44:40.455Z,101261.50
2023-05-12T00:47:06.838Z,101259.34
2023-05-12T00:49:33.209Z,101270.16
2023-05-12T00:51:59.553Z,101270.16
2023-05-12T00:54:28.861Z,101270.88
2023-05-12T00:56:55.179Z,101261.41
2023-05-12T00:59:22.536Z,101270.16
2023-05-12T01:01:48.909Z,101268.66
2023-05-12T01:04:15.837Z,101268.66
2023-05-12T01:06:46.175Z,101270.06
2023-05-12T01:09:13.263Z,101267.16
2023-05-12T01:11:39.751Z,101267.16
2023-05-12T01:14:06.111Z,101270.06
2023-05-12T01:16:37.203Z,101270.69
2023-05-12T01:19:04.613Z,101270.69
2023-05-12T01:21:31.889Z,101268.56
2023-05-12T01:23:58.778Z,101271.47
2023-05-12T01:26:29.721Z,101270.78
2023-05-12T01:28:56.621Z,101274.34
2023-05-12T01:31:23.899Z,101281.50
2023-05-12T01:33:50.256Z,101275.72
2023-05-12T01:36:16.750Z,101280.09
2023-05-12T01:38:43.467Z,101281.50
2023-05-12T01:41:09.816Z,101274.25
2023-05-12T01:43:36.422Z,101277.66
2023-05-12T01:46:02.920Z,101285.78
2023-05-12T01:48:29.654Z,101285.78
2023-05-12T01:50:59.647Z,101294.44
2023-05-12T01:53:26.007Z,101290.03
2023-05-12T01:55:52.344Z,101295.06
2023-05-12T01:58:20.417Z,101291.34
2023-05-12T02:00:47.120Z,101278.50
2023-05-12T02:03:17.216Z,101280.56
2023-05-12T02:05:43.609Z,101284.84
2023-05-12T02:08:09.960Z,101290.59
2023-05-12T02:10:36.408Z,101291.34
2023-05-12T02:13:02.908Z,101289.84
2023-05-12T02:15:30.987Z,101302.13
2023-05-12T02:17:58.396Z,101307.13
2023-05-12T02:20:25.089Z,101299.91
2023-05-12T02:22:51.418Z,101309.94
2023-05-12T02:25:17.738Z,101305.66
2023-05-12T02:27:45.023Z,101301.38
2023-05-12T02:30:11.868Z,101309.94
2023-05-12T02:32:38.253Z,101294.88
2023-05-12T02:35:06.372Z,101293.41
2023-05-12T02:37:33.067Z,101296.91
2023-05-12T02:39:59.431Z,101304.91
2023-05-12T02:42:28.803Z,101298.41
2023-05-12T02:44:55.388Z,101299.78
2023-05-12T02:47:22.388Z,101308.44
2023-05-12T02:49:50.160Z,101303.41
2023-05-12T02:52:16.505Z,101303.41
2023-05-12T02:54:42.871Z,101299.78
2023-05-12T02:57:10.760Z,101302.69
2023-05-12T02:59:37.097Z,101295.44
2023-05-12T03:02:04.885Z,101304.81
2023-05-12T03:04:33.052Z,101304.09
2023-05-12T03:06:59.411Z,101296.91
2023-05-12T03:09:25.905Z,101301.19
2023-05-12T03:11:52.231Z,101308.44
2023-05-12T03:14:19.432Z,101307.59
2023-05-12T03:16:45.793Z,101311.97
2023-05-12T03:19:12.240Z,101312.72
2023-05-12T03:21:38.620Z,101311.97
2023-05-12T03:24:05.113Z,101309.84
2023-05-12T03:26:31.607Z,101311.22
2023-05-12T03:28:58.101Z,101322.75
2023-05-12T03:31:24.498Z,101317.00
2023-05-12T03:33:50.868Z,101317.00
2023-05-12T03:36:17.407Z,101309.75
2023-05-12T03:38:44.180Z,101318.41
2023-05-12T03:41:12.861Z,101319.78
2023-05-12T03:43:40.365Z,101319.78
2023-05-12T03:46:06.796Z,101324.06
2023-05-12T03:48:33.177Z,101324.81
2023-05-12T03:50:59.682Z,101324.06
2023-05-12T03:53:27.549Z,101320.44
2023-05-12T03:55:54.852Z,101328.44
2023-05-12T03:58:22.362Z,101323.31
2023-05-12T04:00:50.078Z,101331.97
2023-05-12T04:03:16.796Z,101331.22
2023-05-12T04:05:43.209Z,101328.88
2023-05-12T04:08:09.560Z,101331.88
2023-05-12T04:10:39.859Z,101329.72
2023-05-12T04:13:06.526Z,101337.06
2023-05-12T04:15:32.865Z,101328.16
2023-05-12T04:17:59.232Z,101338.16
2023-05-12T04:20:25.652Z,101335.75
2023-05-12T04:22:52.069Z,101335.75
2023-05-12T04:25:18.441Z,101338.53
2023-05-12T04:27:44.931Z,101338.53
2023-05-12T04:30:11.420Z,101340.84
2023-05-12T04:32:39.590Z,101340.00
2023-05-12T04:35:06.594Z,101335.19
2023-05-12T04:37:33.265Z,101333.72
2023-05-12T04:39:59.700Z,101343.41
2023-05-12T04:42:26.588Z,101343.84
2023-05-12T04:44:53.048Z,101345.97
2023-05-12T04:47:19.573Z,101348.88
2023-05-12T04:49:45.960Z,101357.50
2023-05-12T04:52:14.120Z,101355.22
2023-05-12T04:54:40.458Z,101356.41
2023-05-12T04:57:06.857Z,101358.84
2023-05-12T04:59:33.597Z,101363.31
2023-05-12T05:02:00.006Z,101359.13
2023-05-12T05:04:26.364Z,101367.88
2023-05-12T05:06:52.750Z,101363.63
2023-05-12T05:09:19.282Z,101362.22
2023-05-12T05:11:45.676Z,101366.63
2023-05-12T05:14:12.182Z,101368.09
2023-05-12T05:16:38.578Z,101369.56
2023-05-12T05:19:06.745Z,101366.69
2023-05-12T05:21:38.426Z,101378.22
2023-05-12T05:24:05.900Z,101372.44
2023-05-12T05:26:33.526Z,101372.56
2023-05-12T05:28:59.896Z,101384.09
2023-05-12T05:31:28.618Z,101378.31
2023-05-12T05:33:55.315Z,101379.72
2023-05-12T05:36:23.294Z,101388.47
2023-05-12T05:38:49.647Z,101385.59
2023-05-12T05:41:15.986Z,101384.09
2023-05-12T05:43:42.402Z,101385.59
2023-05-12T05:46:09.144Z,101388.47
2023-05-12T05:48:38.490Z,101392.09
2023-05-12T05:51:06.262Z,101386.31
2023-05-12T05:53:32.837Z,101395.72
2023-05-12T05:55:59.520Z,101397.13
2023-05-12T05:58:25.849Z,101401.47
2023-05-12T06:00:52.202Z,101398.59
2023-05-12T06:03:18.668Z,101403.00
2023-05-12T06:05:45.351Z,101404.34
2023-05-12T06:08:13.445Z,101405.09
2023-05-12T06:10:40.974Z,101401.59
2023-05-12T06:13:07.344Z,101410.88
2023-05-12T06:15:33.729Z,101410.22
2023-05-12T06:18:00.170Z,101400.09
2023-05-12T06:20:26.559Z,101413.84
2023-05-12T06:22:52.916Z,101408.09
2023-05-12T06:25:19.367Z,101408.84
2023-05-12T06:27:45.782Z,101414.63
2023-05-12T06:30:14.958Z,101416.84
2023-05-12T06:32:42.242Z,101418.97
2023-05-12T06:35:08.737Z,101421.88
2023-05-12T06:37:35.126Z,101411.81
2023-05-12T06:40:01.460Z,101414.78
2023-05-12T06:42:27.825Z,101423.44
2023-05-12T06:44:55.934Z,101411.81
2023-05-12T06:47:22.305Z,101414.06
2023-05-12T06:49:49.986Z,101423.34
2023-05-12T06:52:17.090Z,101414.78
2023-05-12T06:54:43.424Z,101411.19
2023-05-12T06:57:09.820Z,101414.78
2023-05-12T06:59:36.144Z,101417.03
2023-05-12T07:02:02.495Z,101421.34
2023-05-12T07:04:29.662Z,101421.34
2023-05-12T07:06:56.688Z,101416.31
2023-05-12T07:09:23.009Z,101414.91
2023-05-12T07:11:49.327Z,101425.06
2023-05-12T07:14:15.754Z,101412.75
2023-05-12T07:16:42.090Z,101410.66
2023-05-12T07:19:09.604Z,101414.25
2023-05-12T07:21:36.410Z,101415.00
2023-05-12T07:24:02.731Z,101417.88
2023-05-12T07:26:29.776Z,101414.25
2023-05-12T07:28:56.120Z,101421.50
2023-05-12T07:31:22.490Z,101422.28
2023-05-12T07:33:48.841Z,101418.00
2023-05-12T07:36:15.183Z,101415.75
2023-05-12T07:38:41.651Z,101418.72
2023-05-12T07:41:08.024Z,101418.72
2023-05-12T07:43:34.374Z,101409.34
2023-05-12T07:46:01.155Z,101407.97
2023-05-12T07:48:27.517Z,101412.97
2023-05-12T07:50:53.847Z,101413.72
2023-05-12T07:53:20.164Z,101415.22
2023-05-12T07:55:46.477Z,101425.34
2023-05-12T07:58:12.794Z,101422.47
2023-05-12T08:00:39.124Z,101409.44
2023-05-12T08:03:06.449Z,101428.22
2023-05-12T08:05:32.971Z,101422.47
2023-05-12T08:07:59.301Z,101416.69
2023-05-12T08:10:29.579Z,101415.31
2023-05-12T08:12:55.919Z,101418.94
2023-05-12T08:15:22.492Z,101424.06
2023-05-12T08:17:49.163Z,101426.84
2023-05-12T08:20:15.613Z,101421.91
2023-05-12T08:22:42.157Z,101417.47
2023-05-12T08:25:10.350Z,101417.47
2023-05-12T08:27:38.791Z,101419.78
2023-05-12T08:30:05.498Z,101420.44
2023-05-12T08:32:31.973Z,101424.16
2023-05-12T08:34:58.310Z,101421.91
2023-05-12T08:37:24.661Z,101424.16
2023-05-12T08:39:50.984Z,101427.06
2023-05-12T08:42:37.198Z,101424.16
2023-05-12T08:45:04.157Z,101424.91
2023-05-12T08:47:30.926Z,101433.66
2023-05-12T08:50:00.925Z,101427.16
2023-05-12T08:52:31.663Z,101427.78
2023-05-12T08:54:59.446Z,101426.38
2023-05-12T08:57:28.749Z,101414.84
2023-05-12T08:59:56.285Z,101421.38
2023-05-12T09:02:23.626Z,101422.88
2023-05-12T09:04:51.126Z,101424.34
2023-05-12T09:07:22.409Z,101425.13
2023-05-12T09:09:48.991Z,101418.50
2023-05-12T09:12:16.919Z,101418.56
2023-05-12T09:14:43.330Z,101413.59
2023-05-12T09:17:09.668Z,101411.44
2023-05-12T09:19:35.989Z,101415.69
2023-05-12T09:22:02.317Z,101414.31
2023-05-12T09:24:35.059Z,101410.03
2023-05-12T09:27:01.384Z,101413.69
2023-05-12T09:29:31.801Z,101413.69
2023-05-12T09:32:02.275Z,101433.09
2023-05-12T09:34:32.360Z,101415.78
2023-05-12T09:36:59.354Z,101417.31
2023-05-12T09:39:25.733Z,101418.03
2023-05-12T09:41:52.717Z,101414.53
2023-05-12T09:44:19.073Z,101410.13
2023-05-12T09:46:45.421Z,101409.38
2023-05-12T09:49:11.954Z,101408.75
2023-05-12T09:51:38.466Z,101403.72
2023-05-12T09:54:06.476Z,101410.97
2023-05-12T09:56:35.200Z,101412.38
2023-05-12T09:59:01.581Z,101419.53
2023-05-12T10:01:28.254Z,101415.91
2023-05-12T10:03:55.658Z,101407.25
2023-05-12T10:06:26.930Z,101410.22
2023-05-12T10:08:54.624Z,101408.84
2023-05-12T10:11:21.431Z,101419.00
2023-05-12T10:13:47.803Z,101411.75
2023-05-12T10:16:14.178Z,101400.19
2023-05-12T10:18:40.811Z,101406.72
2023-05-12T10:21:08.114Z,101403.16
2023-05-12T10:23:37.157Z,101403.25
2023-05-12T10:26:04.198Z,101395.91
2023-05-12T10:28:30.557Z,101396.00
2023-05-12T10:30:57.316Z,101399.63
2023-05-12T10:33:24.036Z,101388.09
2023-05-12T10:35:51.117Z,101388.09
2023-05-12T10:38:17.585Z,101401.88
2023-05-12T10:40:58.346Z,101392.38
2023-05-12T10:43:26.646Z,101387.38
2023-05-12T10:46:11.654Z,101384.38
2023-05-12T10:48:50.007Z,101381.59
2023-05-12T10:51:18.999Z,101386.06
2023-05-12T10:53:49.121Z,101384.59
2023-05-12T10:56:23.870Z,101381.03
2023-05-12T10:59:10.127Z,101385.97
2023-05-12T11:01:37.616Z,101391.81
2023-05-12T11:04:14.228Z,101391.94
2023-05-12T11:06:41.138Z,101381.13
2023-05-12T11:09:09.027Z,101384.78
2023-05-12T11:11:36.248Z,101379.00
2023-05-12T11:14:02.932Z,101374.72
2023-05-12T11:16:29.291Z,101391.94
2023-05-12T11:19:02.680Z,101379.00
2023-05-12T11:21:30.192Z,101381.22
2023-05-12T11:23:56.526Z,101387.72
2023-05-12T11:26:22.851Z,101373.97
2023-05-12T11:28:49.183Z,101379.00
2023-05-12T11:31:19.808Z,101373.25
2023-05-12T11:33:46.409Z,101380.50
2023-05-12T11:36:12.756Z,101384.84
2023-05-12T11:38:39.109Z,101376.03
2023-05-12T11:41:05.500Z,101384.78
2023-05-12T11:43:31.834Z,101390.63
2023-05-12T11:45:59.709Z,101385.63
2023-05-12T11:48:32.664Z,101400.03
2023-05-12T11:50:59.024Z,101399.28
2023-05-12T11:53:26.083Z,101399.28
2023-05-12T11:55:54.531Z,101390.56
2023-05-12T11:58:21.945Z,101402.16
2023-05-12T12:00:49.008Z,101393.50
2023-05-12T12:03:15.847Z,101399.38
2023-05-12T12:05:43.277Z,101402.25
2023-05-12T12:08:10.519Z,101392.22
2023-05-12T12:10:36.881Z,101399.47
2023-05-12T12:13:03.376Z,101397.31
2023-05-12T12:15:29.706Z,101399.56
2023-05-12T12:17:56.112Z,101389.44
2023-05-12T12:20:24.627Z,101393.91
2023-05-12T12:22:51.590Z,101388.13
2023-05-12T12:25:18.100Z,101390.38
2023-05-12T12:27:44.565Z,101395.41
2023-05-12T12:30:11.654Z,101401.19
2023-05-12T12:32:38.580Z,101390.38
2023-05-12T12:35:06.753Z,101396.88
2023-05-12T12:37:33.139Z,101392.72
2023-05-12T12:39:59.452Z,101393.56
2023-05-12T12:42:25.834Z,101377.75
2023-05-12T12:44:52.426Z,101380.00
2023-05-12T12:47:18.801Z,101392.91
2023-05-12T12:49:45.189Z,101395.06
2023-05-12T12:52:11.579Z,101391.44
2023-05-12T12:54:37.892Z,101382.78
2023-05-12T12:57:04.574Z,101385.66
2023-05-12T12:59:30.917Z,101387.16
2023-05-12T13:01:59.881Z,101385.78
2023-05-12T13:04:26.348Z,101373.47
2023-05-12T13:06:52.782Z,101377.19
2023-05-12T13:09:20.095Z,101380.16
2023-05-12T13:11:46.966Z,101372.91
2023-05-12T13:14:13.294Z,101379.44
2023-05-12T13:16:39.700Z,101372.34
2023-05-12T13:19:06.232Z,101381.78
2023-05-12T13:21:33.309Z,101379.44
2023-05-12T13:24:00.048Z,101380.34
2023-05-12T13:26:26.621Z,101387.63
2023-05-12T13:28:53.492Z,101389.13
2023-05-12T13:31:19.839Z,101389.84
2023-05-12T13:33:46.217Z,101382.78
2023-05-12T13:36:12.568Z,101379.03
2023-05-12T13:38:39.090Z,101382.59
2023-05-12T13:41:05.787Z,101383.53
2023-05-12T13:43:32.113Z,101385.59
2023-05-12T13:45:58.457Z,101369.09
2023-05-12T13:48:24.823Z,101377.75
2023-05-12T13:50:51.605Z,101373.47
2023-05-12T13:53:17.936Z,101372.00
2023-05-12T13:55:44.994Z,101376.25
2023-05-12T13:58:11.331Z,101367.69
2023-05-12T14:00:37.675Z,101368.44
2023-05-12T14:03:04.082Z,101369.94
2023-05-12T14:05:30.618Z,101368.44
2023-05-12T14:07:57.152Z,101378.03
2023-05-12T14:10:23.810Z,101372.19
2023-05-12T14:12:50.151Z,101364.91
2023-05-12T14:15:32.347Z,101373.66
2023-05-12T14:17:59.789Z,101377.28
2023-05-12T14:20:26.210Z,101367.97
2023-05-12T14:22:52.681Z,101361.47
2023-05-12T14:25:19.412Z,101365.75
2023-05-12T14:27:45.994Z,101367.97
2023-05-12T14:30:12.469Z,101375.13
2023-05-12T14:32:38.985Z,101371.59
2023-05-12T14:35:06.617Z,101365.09
2023-05-12T14:37:34.552Z,101368.81
2023-05-12T14:40:01.332Z,101367.88
2023-05-12T14:42:29.390Z,101372.34
2023-05-12T14:44:56.339Z,101377.38
2023-05-12T14:47:22.727Z,101378.13
2023-05-12T14:49:49.168Z,101370.22
2023-05-12T14:52:15.763Z,101362.31
2023-05-12T14:54:42.075Z,101371.06
2023-05-12T14:57:08.744Z,101361.56
2023-05-12T14:59:35.082Z,101363.78
2023-05-12T15:02:01.461Z,101370.22
2023-05-12T15:04:27.887Z,101356.72
2023-05-12T15:06:54.213Z,101361.72
2023-05-12T15:09:20.638Z,101367.50
2023-05-12T15:11:47.081Z,101358.19
2023-05-12T15:14:13.466Z,101361.00
2023-05-12T15:16:40.001Z,101359.63
2023-05-12T15:19:06.470Z,101356.78
2023-05-12T15:21:34.842Z,101352.44
2023-05-12T15:24:01.866Z,101363.97
2023-05-12T15:26:33.605Z,101368.44
2023-05-12T15:29:00.427Z,101361.91
2023-05-12T15:31:28.177Z,101366.97
2023-05-12T15:33:54.553Z,101360.44
2023-05-12T15:36:20.878Z,101366.31
2023-05-12T15:38:47.265Z,101364.16
2023-05-12T15:41:13.593Z,101346.09
2023-05-12T15:43:40.987Z,101364.06
2023-05-12T15:46:07.769Z,101358.38
2023-05-12T15:48:34.164Z,101359.88
2023-05-12T15:51:02.248Z,101354.09
2023-05-12T15:53:28.596Z,101364.16
2023-05-12T15:56:01.409Z,101367.06
2023-05-12T15:58:28.375Z,101359.78
2023-05-12T16:00:54.846Z,101356.16
2023-05-12T16:03:21.243Z,101351.13
2023-05-12T16:05:47.647Z,101353.25
2023-05-12T16:08:14.253Z,101354.00
2023-05-12T16:10:40.926Z,101360.63
2023-05-12T16:13:07.274Z,101359.78
2023-05-12T16:15:33.611Z,101356.97
2023-05-12T16:17:59.978Z,101358.38
2023-05-12T16:20:26.347Z,101356.34
2023-05-12T16:22:53.374Z,101359.88
2023-05-12T16:25:20.190Z,101362.28
2023-05-12T16:27:46.748Z,101361.56
2023-05-12T16:30:13.275Z,101362.66
2023-05-12T16:32:42.581Z,101356.53
2023-05-12T16:35:08.971Z,101349.66
2023-05-12T16:37:35.310Z,101349.00
2023-05-12T16:40:01.665Z,101351.88
2023-05-12T16:42:28.104Z,101356.16
2023-05-12T16:44:57.816Z,101354.94
2023-05-12T16:47:24.182Z,101362.13
2023-05-12T16:49:53.479Z,101362.31
2023-05-12T16:52:19.860Z,101355.41
2023-05-12T16:54:46.229Z,101355.13
2023-05-12T16:57:12.569Z,101359.50
2023-05-12T16:59:39.633Z,101355.38
2023-05-12T17:02:06.222Z,101358.91
2023-05-12T17:04:32.788Z,101354.25
2023-05-12T17:06:59.170Z,101360.78
2023-05-12T17:09:25.509Z,101361.78
2023-05-12T17:11:51.854Z,101369.69
2023-05-12T17:14:19.344Z,101367.09
2023-05-12T17:16:45.968Z,101369.19
2023-05-12T17:19:14.114Z,101365.94
2023-05-12T17:21:41.132Z,101366.03
2023-05-12T17:24:08.100Z,101369.19
2023-05-12T17:26:34.585Z,101373.47
2023-05-12T17:29:01.257Z,101364.16
2023-05-12T17:31:27.639Z,101374.22
2023-05-12T17:33:54.070Z,101373.66
2023-05-12T17:36:20.456Z,101373.66
2023-05-12T17:38:46.841Z,101380.06
2023-05-12T17:41:13.534Z,101382.22
2023-05-12T17:43:39.890Z,101385.84
2023-05-12T17:46:07.656Z,101398.22
2023-05-12T17:48:34.017Z,101393.97
2023-05-12T17:51:00.858Z,101392.44
2023-05-12T17:53:27.182Z,101402.63
2023-05-12T17:55:54.251Z,101402.72
2023-05-12T17:58:20.836Z,101409.97
2023-05-12T18:00:47.259Z,101407.66
2023-05-12T18:03:13.710Z,101414.25
2023-05-12T18:05:40.126Z,101409.97
2023-05-12T18:08:07.891Z,101409.97
2023-05-12T18:10:35.695Z,101417.97
2023-05-12T18:13:02.049Z,101412.22
2023-05-12T18:15:30.005Z,101407.06
2023-05-12T18:17:57.845Z,101412.94
2023-05-12T18:20:24.235Z,101420.03
2023-05-12T18:22:51.707Z,101414.34
2023-05-12T18:25:18.182Z,101423.00
2023-05-12T18:27:44.608Z,101420.22
2023-05-12T18:30:11.276Z,101424.50
2023-05-12T18:32:38.130Z,101420.03
2023-05-12T18:35:05.568Z,101430.16
2023-05-12T18:37:32.000Z,101435.84
2023-05-12T18:39:58.540Z,101434.56
2023-05-12T18:42:25.737Z,101431.78
2023-05-12T18:44:52.313Z,101440.50
2023-05-12T18:47:18.998Z,101441.91
2023-05-12T18:49:45.346Z,101451.97
2023-05-12T18:52:11.662Z,101452.63
2023-05-12T18:54:38.228Z,101450.56
2023-05-12T18:57:04.578Z,101459.13
2023-05-12T18:59:31.271Z,101460.53
2023-05-12T19:01:57.670Z,101463.59
2023-05-12T19:04:24.106Z,101462.09
2023-05-12T19:06:50.491Z,101466.47
2023-05-12T19:09:17.181Z,101475.13
2023-05-12T19:11:44.271Z,101470.78
2023-05-12T19:14:10.676Z,101473.66
2023-05-12T19:16:38.086Z,101472.91
2023-05-12T19:19:04.733Z,101479.44
2023-05-12T19:21:32.298Z,101476.53
2023-05-12T19:23:58.688Z,101473.66
2023-05-12T19:26:25.056Z,101480.06
2023-05-12T19:28:51.400Z,101481.56
2023-05-12T19:31:17.861Z,101482.22
2023-05-12T19:33:44.284Z,101487.25
2023-05-12T19:36:11.328Z,101485.09
2023-05-12T19:38:37.766Z,101493.75
2023-05-12T19:41:04.129Z,101485.09
2023-05-12T19:43:30.470Z,101489.50
2023-05-12T19:45:56.817Z,101490.78
2023-05-12T19:48:23.150Z,101481.47
2023-05-12T19:50:49.476Z,101494.50
2023-05-12T19:53:15.821Z,101489.28
2023-05-12T19:55:42.157Z,101493.75
2023-05-12T19:58:08.887Z,101498.06
2023-05-12T20:00:36.966Z,101493.75
2023-05-12T20:03:05.408Z,101498.06
2023-05-12T20:05:31.802Z,101503.84
2023-05-12T20:07:58.125Z,101498.06
2023-05-12T20:10:24.451Z,101504.56
2023-05-12T20:12:51.666Z,101505.31
2023-05-12T20:15:18.015Z,101500.84
2023-05-12T20:17:44.355Z,101502.31
2023-05-12T20:20:11.489Z,101509.59
2023-05-12T20:22:38.849Z,101502.31
2023-05-12T20:25:05.359Z,101507.34
2023-05-12T20:27:31.870Z,101505.88
2023-05-12T20:29:58.644Z,101508.09
2023-05-12T20:32:25.028Z,101505.09
2023-05-12T20:34:51.377Z,101512.38
2023-05-12T20:37:18.168Z,101515.91
2023-05-12T20:39:44.529Z,101505.09
2023-05-12T20:42:10.955Z,101510.88
2023-05-12T20:44:37.342Z,101506.50
2023-05-12T20:47:03.798Z,101516.66
2023-05-12T20:49:30.173Z,101503.63
2023-05-12T20:51:56.530Z,101506.50
2023-05-12T20:54:22.874Z,101508.66
2023-05-12T20:56:49.225Z,101513.66
2023-05-12T20:59:15.567Z,101514.44
2023-05-12T21:01:41.926Z,101519.44
2023-05-12T21:04:08.361Z,101526.72
2023-05-12T21:06:34.866Z,101526.72
2023-05-12T21:09:01.183Z,101521.59
2023-05-12T21:11:27.563Z,101530.97
2023-05-12T21:13:53.885Z,101528.03
2023-05-12T21:16:20.283Z,101529.50
2023-05-12T21:18:46.705Z,101529.50
2023-05-12T21:21:13.142Z,101528.75
2023-05-12T21:23:39.494Z,101533.03
2023-05-12T21:26:05.902Z,101532.28
2023-05-12T21:28:32.312Z,101528.03
2023-05-12T21:30:58.665Z,101535.19
2023-05-12T21:33:25.015Z,101535.19
2023-05-12T21:35:51.375Z,101525.78
2023-05-12T21:38:17.741Z,101526.53
2023-05-12T21:40:44.269Z,101536.59
2023-05-12T21:43:10.648Z,101527.94
2023-05-12T21:45:37.201Z,101536.59
2023-05-12T21:48:03.888Z,101529.31
2023-05-12T21:50:30.275Z,101532.94
2023-05-12T21:52:56.616Z,101536.47
2023-05-12T21:55:22.941Z,101535.06
2023-05-12T21:57:49.300Z,101543.00
2023-05-12T22:00:18.804Z,101537.97
2023-05-12T22:02:45.694Z,101538.63
2023-05-12T22:05:12.072Z,101535.75
2023-05-12T22:07:38.415Z,101539.38
2023-05-12T22:10:05.087Z,101532.09
2023-05-12T22:12:31.428Z,101537.84
2023-05-12T22:14:57.778Z,101524.84
2023-05-12T22:17:24.178Z,101533.50
2023-05-12T22:19:50.891Z,101536.38
2023-05-12T22:22:17.777Z,101540.66
2023-05-12T22:24:44.113Z,101542.16
2023-05-12T22:27:10.808Z,101540.66
2023-05-12T22:29:37.211Z,101546.41
2023-05-12T22:32:03.544Z,101550.72
2023-05-12T22:34:29.894Z,101539.16
2023-05-12T22:36:56.214Z,101539.16
2023-05-12T22:39:22.540Z,101538.44
2023-05-12T22:41:48.885Z,101537.69
2023-05-12T22:44:15.215Z,101544.19
2023-05-12T22:46:41.598Z,101552.13
2023-05-12T22:49:07.964Z,101546.34
2023-05-12T22:51:34.334Z,101550.72
2023-05-12T22:54:00.702Z,101549.22
2023-05-12T22:56:27.108Z,101552.75
2023-05-12T22:58:53.452Z,101553.50
2023-05-12T23:01:19.844Z,101544.84
2023-05-12T23:03:46.275Z,101541.94
2023-05-12T23:06:12.941Z,101544.84
2023-05-12T23:08:39.280Z,101546.25
2023-05-12T23:11:05.671Z,101535.44
2023-05-12T23:13:32.012Z,101539.69
2023-05-12T23:15:58.351Z,101530.31
2023-05-12T23:18:24.738Z,101543.34
2023-05-12T23:20:51.113Z,101533.94
2023-05-12T23:23:17.451Z,101544.72
2023-05-12T23:25:43.803Z,101530.31
2023-05-12T23:28:10.124Z,101543.25
2023-05-12T23:30:36.474Z,101540.38
2023-05-12T23:33:02.860Z,101532.44
2023-05-12T23:35:29.398Z,101533.19
2023-05-12T23:37:55.760Z,101531.72
2023-05-12T23:40:22.354Z,101537.47
2023-05-12T23:42:48.855Z,101534.59
2023-05-12T23:45:15.865Z,101532.44
2023-05-12T23:47:43.129Z,101534.59
2023-05-12T23:50:09.495Z,101537.47
2023-05-12T23:52:35.973Z,101530.19
2023-05-12T23:55:02.368Z,101529.47
2023-05-12T23:57:28.712Z,101540.25
2023-05-12T23:59:55.060Z,101546.03
